createdAt,value
2018-03-03T00:00:27.809Z,10.02
2018-03-03T00:02:56.477Z,10.23
2018-03-03T00:05:25.013Z,11.00
2018-03-03T00:07:53.490Z,9.88
2018-03-03T00:10:23.244Z,11.60
2018-03-03T00:12:51.818Z,8.77
2018-03-03T00:15:20.312Z,11.00
2018-03-03T00:17:56.846Z,10.35
2018-03-03T00:20:25.333Z,10.50
2018-03-03T00:22:54.000Z,9.88
2018-03-03T00:25:23.205Z,12.35
2018-03-03T00:27:51.645Z,11.30
2018-03-03T00:30:20.107Z,10.95
2018-03-03T00:32:48.982Z,9.65
2018-03-03T00:35:17.414Z,11.98
2018-03-03T00:37:45.840Z,12.37
2018-03-03T00:40:15.626Z,11.45
2018-03-03T00:42:44.053Z,10.10
2018-03-03T00:45:12.539Z,11.30
2018-03-03T00:47:41.179Z,10.10
2018-03-03T00:50:09.939Z,11.10
2018-03-03T00:52:38.867Z,10.95
2018-03-03T00:55:07.469Z,11.18
2018-03-03T00:57:37.367Z,11.12
2018-03-03T01:00:05.974Z,11.70
2018-03-03T01:02:34.640Z,10.43
2018-03-03T01:05:03.191Z,10.57
2018-03-03T01:07:31.781Z,12.23
2018-03-03T01:10:00.435Z,11.70
2018-03-03T01:12:29.070Z,11.85
2018-03-03T01:14:57.526Z,12.43
2018-03-03T01:17:26.035Z,9.50
2018-03-03T01:19:55.302Z,10.50
2018-03-03T01:22:23.753Z,11.55
2018-03-03T01:24:52.292Z,12.45
2018-03-03T01:27:20.773Z,11.10
2018-03-03T01:29:49.259Z,11.12
2018-03-03T01:32:18.295Z,10.90
2018-03-03T01:34:46.821Z,10.02
2018-03-03T01:37:15.303Z,12.20
2018-03-03T01:39:43.916Z,11.88
2018-03-03T01:42:12.432Z,12.37
2018-03-03T01:44:41.240Z,10.82
2018-03-03T01:47:09.822Z,10.98
2018-03-03T01:49:39.540Z,10.23
2018-03-03T01:52:08.132Z,10.43
2018-03-03T01:54:36.952Z,10.55
2018-03-03T01:57:05.842Z,11.40
2018-03-03T01:59:34.485Z,9.88
2018-03-03T02:02:03.076Z,10.88
2018-03-03T02:04:31.556Z,9.18
2018-03-03T02:07:00.793Z,10.02
2018-03-03T02:09:29.458Z,9.98
2018-03-03T02:11:57.954Z,11.30
2018-03-03T02:14:26.473Z,10.60
2018-03-03T02:16:54.984Z,9.10
2018-03-03T02:19:23.426Z,10.02
2018-03-03T02:21:51.910Z,10.90
2018-03-03T02:24:20.972Z,10.57
2018-03-03T02:26:49.431Z,10.00
2018-03-03T02:29:17.916Z,10.27
2018-03-03T02:31:46.433Z,10.70
2018-03-03T02:34:14.979Z,10.02
2018-03-03T02:36:43.500Z,9.00
2018-03-03T02:39:11.987Z,10.68
2018-03-03T02:41:40.465Z,7.15
2018-03-03T02:44:09.005Z,10.27
2018-03-03T02:46:37.691Z,10.27
2018-03-03T02:49:06.680Z,9.30
2018-03-03T02:51:35.184Z,10.13
2018-03-03T02:54:03.739Z,9.48
2018-03-03T02:56:32.231Z,9.40
2018-03-03T02:59:00.703Z,9.20
2018-03-03T03:01:29.891Z,10.63
2018-03-03T03:03:58.376Z,7.82
2018-03-03T03:06:26.790Z,8.90
2018-03-03T03:08:55.442Z,8.98
2018-03-03T03:11:23.894Z,9.10
2018-03-03T03:13:52.312Z,8.95
2018-03-03T03:16:20.853Z,10.50
2018-03-03T03:18:50.405Z,9.38
2018-03-03T03:21:18.859Z,10.88
2018-03-03T03:23:47.430Z,10.35
2018-03-03T03:26:15.873Z,9.70
2018-03-03T03:28:44.462Z,11.07
2018-03-03T03:31:13.078Z,9.85
2018-03-03T03:33:41.521Z,9.70
2018-03-03T03:36:10.272Z,10.88
2018-03-03T03:38:39.267Z,8.82
2018-03-03T03:41:07.814Z,10.80
2018-03-03T03:43:36.318Z,10.55
2018-03-03T03:46:04.901Z,9.50
2018-03-03T03:48:33.423Z,11.20
2018-03-03T03:51:01.879Z,9.35
2018-03-03T03:53:30.686Z,10.88
2018-03-03T03:55:59.153Z,10.93
2018-03-03T03:58:27.662Z,8.73
2018-03-03T04:00:56.946Z,9.82
2018-03-03T04:03:25.381Z,8.73
2018-03-03T04:05:53.808Z,12.18
2018-03-03T04:08:22.320Z,9.80
2018-03-03T04:10:50.789Z,9.32
2018-03-03T04:13:19.241Z,10.30
2018-03-03T04:15:49.299Z,11.20
2018-03-03T04:18:17.750Z,9.00
2018-03-03T04:20:46.248Z,10.90
2018-03-03T04:23:15.244Z,11.12
2018-03-03T04:25:43.695Z,10.77
2018-03-03T04:28:12.190Z,9.60
2018-03-03T04:30:40.837Z,11.30
2018-03-03T04:33:09.420Z,9.13
2018-03-03T04:35:37.948Z,5.18
2018-03-03T04:38:06.486Z,8.18
2018-03-03T04:40:35.048Z,9.48
2018-03-03T04:43:03.569Z,7.15
2018-03-03T04:45:32.548Z,8.50
2018-03-03T04:48:01.026Z,8.55
2018-03-03T04:50:29.517Z,9.05
2018-03-03T04:52:58.128Z,9.93
2018-03-03T04:55:26.618Z,9.93
2018-03-03T04:57:55.179Z,8.00
2018-03-03T05:00:30.051Z,9.90
2018-03-03T05:03:00.153Z,8.70
2018-03-03T05:05:34.342Z,8.25
2018-03-03T05:08:08.453Z,8.35
2018-03-03T05:10:37.241Z,8.57
2018-03-03T05:13:11.236Z,10.77
2018-03-03T05:15:45.390Z,10.15
2018-03-03T05:18:13.900Z,9.60
2018-03-03T05:24:00.078Z,8.57
2018-03-03T05:26:34.058Z,8.05
2018-03-03T05:29:08.097Z,10.90
2018-03-03T05:34:59.308Z,9.70
2018-03-03T05:37:33.953Z,11.02
2018-03-03T05:40:12.355Z,10.30
2018-03-03T05:42:46.380Z,10.10
2018-03-03T05:45:20.396Z,8.10
2018-03-03T05:51:11.923Z,12.10
2018-03-03T05:53:46.542Z,11.75
2018-03-03T05:56:17.393Z,11.60
2018-03-03T06:02:07.901Z,9.85
2018-03-03T06:08:00.255Z,10.45
2018-03-03T06:10:46.657Z,14.43
2018-03-03T06:13:15.113Z,9.32
2018-03-03T06:15:43.623Z,11.32
2018-03-03T06:18:13.121Z,13.55
2018-03-03T06:20:41.602Z,10.10
2018-03-03T06:23:10.120Z,12.02
2018-03-03T06:25:38.880Z,14.95
2018-03-03T06:28:07.358Z,13.40
2018-03-03T06:30:36.759Z,11.38
2018-03-03T06:33:05.278Z,11.80
2018-03-03T06:35:33.756Z,13.48
2018-03-03T06:38:04.047Z,12.88
2018-03-03T06:40:33.005Z,14.50
2018-03-03T06:43:01.453Z,8.15
2018-03-03T06:45:29.913Z,13.82
2018-03-03T06:47:58.384Z,13.62
2018-03-03T06:50:26.824Z,14.40
2018-03-03T06:52:55.277Z,13.50
2018-03-03T06:55:23.758Z,13.15
2018-03-03T06:57:52.294Z,14.40
2018-03-03T07:00:20.775Z,15.02
2018-03-03T07:02:49.358Z,13.75
2018-03-03T07:05:17.943Z,14.18
2018-03-03T07:07:46.476Z,14.25
2018-03-03T07:10:15.971Z,12.07
2018-03-03T07:12:44.613Z,14.15
2018-03-03T07:15:15.746Z,15.13
2018-03-03T07:17:44.621Z,10.35
2018-03-03T07:20:13.182Z,16.02
2018-03-03T07:22:41.693Z,15.32
2018-03-03T07:25:10.305Z,14.05
2018-03-03T07:27:38.787Z,13.23
2018-03-03T07:30:07.406Z,16.45
2018-03-03T07:32:37.717Z,12.52
2018-03-03T07:35:06.245Z,10.02
2018-03-03T07:37:51.666Z,12.23
2018-03-03T07:40:20.196Z,13.15
2018-03-03T07:42:48.713Z,16.20
2018-03-03T07:45:17.303Z,15.10
2018-03-03T07:47:45.980Z,13.43
2018-03-03T07:50:14.506Z,17.02
2018-03-03T07:52:43.112Z,13.35
2018-03-03T07:55:12.621Z,13.15
2018-03-03T07:57:41.129Z,12.32
2018-03-03T08:00:09.991Z,15.75
2018-03-03T08:02:38.596Z,14.13
2018-03-03T08:05:07.149Z,14.00
2018-03-03T08:07:36.551Z,12.02
2018-03-03T08:10:05.055Z,11.82
2018-03-03T08:12:33.724Z,12.98
2018-03-03T08:15:03.048Z,12.15
2018-03-03T08:17:31.601Z,15.73
2018-03-03T08:20:00.102Z,13.15
2018-03-03T08:22:28.671Z,11.20
2018-03-03T08:24:57.243Z,11.55
2018-03-03T08:27:25.684Z,12.57
2018-03-03T08:29:54.604Z,12.93
2018-03-03T08:32:26.688Z,16.17
2018-03-03T08:34:55.799Z,9.45
2018-03-03T08:37:25.360Z,11.27
2018-03-03T08:39:56.123Z,12.63
2018-03-03T08:42:24.617Z,11.30
2018-03-03T08:44:54.209Z,11.52
2018-03-03T08:47:22.893Z,11.02
2018-03-03T08:49:51.350Z,10.93
2018-03-03T08:52:19.809Z,10.45
2018-03-03T08:54:48.756Z,8.63
2018-03-03T08:59:53.521Z,10.00
2018-03-03T09:02:21.978Z,10.65
2018-03-03T09:04:51.798Z,9.75
2018-03-03T09:07:20.353Z,8.52
2018-03-03T09:09:48.870Z,9.45
2018-03-03T09:12:17.319Z,9.65
2018-03-03T09:14:45.807Z,8.15
2018-03-03T09:17:14.285Z,8.80
2018-03-03T09:19:42.796Z,8.52
2018-03-03T09:22:11.994Z,7.75
2018-03-03T09:24:40.535Z,8.93
2018-03-03T09:27:09.164Z,9.30
2018-03-03T09:29:38.572Z,9.63
2018-03-03T09:32:07.154Z,9.02
2018-03-03T09:34:35.743Z,11.05
2018-03-03T09:37:04.937Z,8.73
2018-03-03T09:39:33.443Z,8.95
2018-03-03T09:42:02.064Z,10.70
2018-03-03T09:44:31.436Z,9.27
2018-03-03T09:46:59.934Z,10.50
2018-03-03T09:49:28.401Z,8.95
2018-03-03T09:51:57.057Z,8.93
2018-03-03T09:54:25.622Z,6.78
2018-03-03T09:56:54.080Z,8.80
2018-03-03T09:59:23.076Z,9.13
2018-03-03T10:01:58.934Z,7.97
2018-03-03T10:04:20.241Z,6.00
2018-03-03T10:06:49.473Z,8.38
2018-03-03T10:09:18.161Z,8.60
2018-03-03T10:11:46.877Z,7.65
2018-03-03T10:14:17.525Z,9.10
2018-03-03T10:16:46.024Z,9.25
2018-03-03T10:19:14.549Z,8.45
2018-03-03T10:21:43.201Z,7.07
2018-03-03T10:24:11.881Z,5.78
2018-03-03T10:26:40.445Z,9.20
2018-03-03T10:29:09.102Z,9.45
2018-03-03T10:31:37.946Z,10.45
2018-03-03T10:34:06.576Z,8.85
2018-03-03T10:36:36.256Z,10.07
2018-03-03T10:39:05.286Z,9.65
2018-03-03T10:41:34.681Z,7.60
2018-03-03T10:44:03.276Z,9.73
2018-03-03T10:46:31.766Z,9.48
2018-03-03T10:49:00.332Z,9.63
2018-03-03T10:51:29.376Z,9.48
2018-03-03T10:53:57.939Z,9.40
2018-03-03T10:56:26.383Z,8.88
2018-03-03T10:58:54.864Z,9.50
2018-03-03T11:01:23.373Z,12.65
2018-03-03T11:03:51.996Z,6.93
2018-03-03T11:06:21.113Z,9.60
2018-03-03T11:08:49.604Z,7.40
2018-03-03T11:11:18.048Z,8.68
2018-03-03T11:13:46.775Z,10.65
2018-03-03T11:16:20.885Z,10.05
2018-03-03T11:18:50.480Z,9.70
2018-03-03T11:21:19.509Z,9.10
2018-03-03T11:23:47.989Z,6.50
2018-03-03T11:26:19.644Z,9.50
2018-03-03T11:28:48.315Z,8.45
2018-03-03T11:31:16.798Z,8.85
2018-03-03T11:33:47.951Z,9.32
2018-03-03T11:36:19.502Z,8.15
2018-03-03T11:38:48.897Z,9.80
2018-03-03T11:41:18.840Z,8.65
2018-03-03T11:43:51.326Z,9.98
2018-03-03T11:46:19.838Z,8.50
2018-03-03T11:48:48.318Z,9.68
2018-03-03T11:51:16.974Z,6.43
2018-03-03T11:53:45.423Z,9.27
2018-03-03T11:56:13.916Z,8.27
2018-03-03T11:58:42.884Z,9.02
2018-03-03T12:01:11.723Z,6.00
2018-03-03T12:03:40.946Z,10.02
2018-03-03T12:06:09.932Z,9.30
2018-03-03T12:08:40.995Z,9.60
2018-03-03T12:11:09.845Z,9.93
2018-03-03T12:13:38.469Z,10.50
2018-03-03T12:16:07.064Z,11.77
2018-03-03T12:18:35.584Z,9.35
2018-03-03T12:21:04.133Z,11.00
2018-03-03T12:23:33.706Z,10.40
2018-03-03T12:26:02.183Z,10.63
2018-03-03T12:28:45.295Z,9.10
2018-03-03T12:31:13.852Z,10.95
2018-03-03T12:33:42.382Z,8.80
2018-03-03T12:36:12.052Z,9.65
2018-03-03T12:38:40.657Z,9.05
2018-03-03T12:41:09.324Z,10.70
2018-03-03T12:43:38.416Z,8.75
2018-03-03T12:46:09.636Z,8.73
2018-03-03T12:48:41.801Z,9.52
2018-03-03T12:51:11.333Z,6.68
2018-03-03T12:53:39.800Z,7.78
2018-03-03T12:56:08.517Z,8.80
2018-03-03T12:58:37.213Z,9.77
2018-03-03T13:01:06.106Z,9.40
2018-03-03T13:03:39.077Z,7.35
2018-03-03T13:06:07.676Z,8.85
2018-03-03T13:08:37.478Z,8.57
2018-03-03T13:11:06.850Z,10.25
2018-03-03T13:13:35.871Z,8.65
2018-03-03T13:16:04.556Z,7.22
2018-03-03T13:18:33.578Z,8.48
2018-03-03T13:21:02.238Z,8.75
2018-03-03T13:23:30.823Z,10.05
2018-03-03T13:26:00.724Z,10.20
2018-03-03T13:28:29.533Z,10.10
2018-03-03T13:30:57.998Z,6.10
2018-03-03T13:33:27.131Z,7.87
2018-03-03T13:35:55.577Z,6.82
2018-03-03T13:38:24.122Z,8.77
2018-03-03T13:40:52.746Z,9.45
2018-03-03T13:43:21.284Z,10.48
2018-03-03T13:45:49.707Z,8.43
2018-03-03T13:48:19.132Z,9.95
2018-03-03T13:50:47.588Z,10.23
2018-03-03T13:53:16.164Z,8.05
2018-03-03T13:55:44.930Z,8.18
2018-03-03T13:58:13.845Z,10.43
2018-03-03T14:00:42.430Z,9.82
2018-03-03T14:03:11.156Z,9.38
2018-03-03T14:05:39.755Z,10.30
2018-03-03T14:08:08.487Z,7.45
2018-03-03T14:10:37.516Z,10.57
2018-03-03T14:13:06.293Z,9.73
2018-03-03T14:15:34.851Z,13.25
2018-03-03T14:18:04.112Z,9.70
2018-03-03T14:20:32.725Z,10.70
2018-03-03T14:23:01.294Z,11.23
2018-03-03T14:25:29.910Z,9.18
2018-03-03T14:27:58.482Z,11.68
2018-03-03T14:30:27.151Z,7.65
2018-03-03T14:32:56.472Z,10.80
2018-03-03T14:35:25.849Z,8.80
2018-03-03T14:37:54.367Z,9.63
2018-03-03T14:40:22.908Z,9.05
2018-03-03T14:42:51.396Z,9.20
2018-03-03T14:45:19.823Z,7.47
2018-03-03T14:47:49.298Z,6.87
2018-03-03T14:50:17.849Z,9.50
2018-03-03T14:52:46.450Z,9.43
2018-03-03T14:55:15.126Z,9.23
2018-03-03T14:57:43.831Z,9.40
2018-03-03T15:00:12.484Z,8.15
2018-03-03T15:02:41.015Z,8.15
2018-03-03T15:05:09.485Z,8.98
2018-03-03T15:07:38.097Z,10.70
2018-03-03T15:10:06.724Z,8.43
2018-03-03T15:12:36.228Z,9.30
2018-03-03T15:15:06.091Z,10.63
2018-03-03T15:17:34.807Z,8.73
2018-03-03T15:20:03.313Z,10.18
2018-03-03T15:22:32.118Z,9.32
2018-03-03T15:25:01.401Z,10.00
2018-03-03T15:27:29.875Z,9.13
2018-03-03T15:30:10.357Z,9.02
2018-03-03T15:32:41.277Z,6.68
2018-03-03T15:35:09.844Z,9.73
2018-03-03T15:37:38.328Z,8.77
2018-03-03T15:40:06.755Z,8.75
2018-03-03T15:42:35.328Z,10.40
2018-03-03T15:45:03.899Z,10.18
2018-03-03T15:47:32.408Z,9.75
2018-03-03T15:50:02.119Z,10.90
2018-03-03T15:52:35.748Z,8.00
2018-03-03T15:55:10.662Z,9.80
2018-03-03T15:57:46.359Z,9.23
2018-03-03T16:00:34.658Z,10.80
2018-03-03T16:06:39.464Z,10.90
2018-03-03T16:12:18.973Z,10.02
2018-03-03T16:14:53.532Z,8.98
2018-03-03T16:17:22.313Z,9.02
2018-03-03T16:19:50.753Z,9.55
2018-03-03T16:22:19.254Z,10.43
2018-03-03T16:24:47.805Z,11.50
2018-03-03T16:27:16.287Z,10.18
2018-03-03T16:29:44.889Z,10.20
2018-03-03T16:32:13.599Z,10.10
2018-03-03T16:34:42.114Z,8.80
2018-03-03T16:37:10.819Z,10.45
2018-03-03T16:39:39.349Z,10.10
2018-03-03T16:42:07.870Z,10.90
2018-03-03T16:44:36.373Z,10.43
2018-03-03T16:47:04.895Z,10.85
2018-03-03T16:49:33.414Z,11.65
2018-03-03T16:52:05.267Z,9.77
2018-03-03T16:54:34.332Z,11.48
2018-03-03T16:57:03.684Z,9.00
2018-03-03T16:59:32.360Z,10.02
2018-03-03T17:02:01.981Z,11.23
2018-03-03T17:04:30.453Z,9.18
2018-03-03T17:06:58.980Z,11.80
2018-03-03T17:09:27.665Z,10.23
2018-03-03T17:11:56.274Z,10.43
2018-03-03T17:14:24.728Z,9.93
2018-03-03T17:16:53.462Z,10.40
2018-03-03T17:19:21.932Z,11.65
2018-03-03T17:21:50.385Z,10.52
2018-03-03T17:24:20.699Z,10.93
2018-03-03T17:26:51.896Z,9.38
2018-03-03T17:29:20.714Z,11.98
2018-03-03T17:31:52.604Z,9.02
2018-03-03T17:34:22.494Z,11.50
2018-03-03T17:36:51.239Z,10.95
2018-03-03T17:39:25.540Z,11.40
2018-03-03T17:41:56.572Z,10.38
2018-03-03T17:44:26.270Z,10.45
2018-03-03T17:46:55.046Z,8.75
2018-03-03T17:49:24.126Z,9.95
2018-03-03T17:51:54.335Z,10.88
2018-03-03T17:54:25.592Z,10.27
2018-03-03T17:56:58.709Z,11.10
2018-03-03T17:59:27.880Z,10.85
2018-03-03T18:01:56.530Z,11.38
2018-03-03T18:04:28.984Z,10.90
2018-03-03T18:06:59.536Z,7.82
2018-03-03T18:12:13.248Z,10.07
2018-03-03T18:14:45.733Z,7.90
2018-03-03T18:17:20.864Z,9.32
2018-03-03T18:19:50.594Z,10.50
2018-03-03T18:22:21.393Z,9.40
2018-03-03T18:24:50.084Z,9.10
2018-03-03T18:27:40.408Z,10.00
2018-03-03T18:30:23.817Z,10.48
2018-03-03T18:33:06.466Z,12.35
2018-03-03T18:35:39.080Z,9.43
2018-03-03T18:38:08.329Z,9.93
2018-03-03T18:40:37.288Z,11.80
2018-03-03T18:43:06.865Z,12.35
2018-03-03T18:45:35.866Z,10.65
2018-03-03T18:48:05.491Z,9.45
2018-03-03T18:50:34.060Z,7.93
2018-03-03T18:53:02.659Z,7.68
2018-03-03T18:55:31.326Z,7.50
2018-03-03T18:57:59.832Z,11.52
2018-03-03T19:00:28.388Z,8.98
2018-03-03T19:02:56.899Z,9.95
2018-03-03T19:05:25.345Z,10.27
2018-03-03T19:07:54.247Z,10.07
2018-03-03T19:10:23.424Z,10.10
2018-03-03T19:12:52.693Z,10.30
2018-03-03T19:15:21.206Z,13.10
2018-03-03T19:17:49.683Z,10.07
2018-03-03T19:20:18.146Z,10.15
2018-03-03T19:22:47.664Z,11.05
2018-03-03T19:25:16.507Z,10.75
2018-03-03T19:27:44.960Z,10.35
2018-03-03T19:30:13.797Z,9.93
2018-03-03T19:32:42.977Z,10.63
2018-03-03T19:35:11.731Z,9.68
2018-03-03T19:37:41.147Z,9.38
2018-03-03T19:40:11.773Z,10.95
2018-03-03T19:42:42.404Z,8.70
2018-03-03T19:45:10.983Z,10.30
2018-03-03T19:47:39.466Z,11.77
2018-03-03T19:50:20.041Z,11.68
2018-03-03T19:52:50.323Z,10.95
2018-03-03T19:55:22.062Z,9.70
2018-03-03T19:57:58.109Z,10.88
2018-03-03T20:00:29.809Z,10.07
2018-03-03T20:02:58.751Z,10.35
2018-03-03T20:05:27.637Z,9.55
2018-03-03T20:07:56.857Z,11.12
2018-03-03T20:10:25.724Z,11.80
2018-03-03T20:12:55.256Z,10.63
2018-03-03T20:15:25.202Z,10.73
2018-03-03T20:17:54.367Z,9.63
2018-03-03T20:20:23.738Z,10.30
2018-03-03T20:22:53.033Z,9.77
2018-03-03T20:25:21.783Z,9.98
2018-03-03T20:27:50.580Z,12.77
2018-03-03T20:30:19.172Z,13.40
2018-03-03T20:32:47.808Z,10.90
2018-03-03T20:35:16.960Z,11.70
2018-03-03T20:40:38.866Z,8.77
2018-03-03T20:43:08.733Z,12.15
2018-03-03T20:45:38.562Z,10.82
2018-03-03T20:48:09.245Z,12.37
2018-03-03T20:50:47.531Z,13.77
2018-03-03T20:53:17.444Z,11.52
2018-03-03T20:55:46.033Z,10.60
2018-03-03T20:58:14.609Z,11.65
2018-03-03T21:00:43.150Z,11.93
2018-03-03T21:03:11.678Z,11.60
2018-03-03T21:05:40.941Z,11.93
2018-03-03T21:08:09.533Z,11.32
2018-03-03T21:10:38.246Z,11.85
2018-03-03T21:13:06.987Z,11.23
2018-03-03T21:15:37.109Z,12.10
2018-03-03T21:18:10.580Z,11.15
2018-03-03T21:20:41.308Z,10.15
2018-03-03T21:23:11.571Z,10.27
2018-03-03T21:25:41.756Z,12.40
2018-03-03T21:28:11.513Z,12.63
2018-03-03T21:30:40.327Z,13.27
2018-03-03T21:33:08.896Z,11.00
2018-03-03T21:35:50.920Z,10.43
2018-03-03T21:38:22.385Z,12.23
2018-03-03T21:40:51.875Z,10.82
2018-03-03T21:49:27.780Z,11.48
2018-03-03T21:51:59.072Z,12.32
2018-03-03T21:54:28.949Z,13.18
2018-03-03T21:56:59.750Z,13.25
2018-03-03T21:59:29.360Z,12.23
2018-03-03T22:02:13.316Z,14.87
2018-03-03T22:10:47.560Z,12.20
2018-03-03T22:13:21.314Z,12.40
2018-03-03T22:15:50.493Z,12.35
2018-03-03T22:18:19.075Z,12.70
2018-03-03T22:21:02.750Z,10.40
2018-03-03T22:23:42.622Z,13.68
2018-03-03T22:26:28.379Z,13.68
2018-03-03T22:29:11.850Z,13.07
2018-03-03T22:31:42.918Z,11.63
2018-03-03T22:34:13.598Z,10.68
2018-03-03T22:36:55.165Z,12.40
2018-03-03T22:39:41.451Z,10.50
2018-03-03T22:42:16.347Z,10.80
2018-03-03T22:44:45.202Z,11.88
2018-03-03T22:47:15.645Z,12.45
2018-03-03T22:49:44.203Z,12.10
2018-03-03T22:52:12.701Z,12.65
2018-03-03T22:54:43.848Z,12.13
2018-03-03T22:57:12.848Z,13.23
2018-03-03T22:59:41.355Z,13.23
2018-03-03T23:02:09.965Z,12.95
2018-03-03T23:04:39.784Z,12.63
2018-03-03T23:07:09.384Z,11.75
2018-03-03T23:09:38.627Z,13.60
2018-03-03T23:12:09.627Z,13.27
2018-03-03T23:14:38.289Z,11.43
2018-03-03T23:17:06.803Z,13.25
2018-03-03T23:19:35.390Z,11.20
2018-03-03T23:22:03.999Z,13.77
2018-03-03T23:24:32.663Z,13.05
2018-03-03T23:27:01.713Z,13.25
2018-03-03T23:29:31.179Z,13.00
2018-03-03T23:31:59.640Z,12.90
2018-03-03T23:34:28.281Z,14.95
2018-03-03T23:36:56.770Z,13.68
2018-03-03T23:39:25.720Z,14.02
2018-03-03T23:41:54.282Z,14.45
2018-03-03T23:44:22.825Z,14.27
2018-03-03T23:46:51.277Z,12.10
2018-03-03T23:49:19.820Z,15.07
2018-03-03T23:51:48.278Z,13.77
2018-03-03T23:54:16.795Z,15.25
2018-03-03T23:56:45.739Z,13.93
2018-03-03T23:59:14.241Z,12.25
